Time;durP1;ratioP1;P1;durP2;ratioP2;P2;SDS_P1;SDS_P2;PMS_P1;PMS_P2;Temp;Humidity;BMP_temperature;BMP_pressure;BME280_temperature;BME280_humidity;BME280_pressure;Samples;Min_cycle;Max_cycle;Signal;HPM_P1;HPM_P2
2022/04/11 00:02:15;;;;;;;6.17;1.23;;;4.60;99.90;;;;;;5006093;28;20055;-75
2022/04/11 00:04:41;;;;;;;4.77;1.20;;;4.60;99.90;;;;;;5006938;28;20043;-78
2022/04/11 00:07:08;;;;;;;2.50;1.00;;;4.50;99.90;;;;;;5011074;28;20041;-78
2022/04/11 00:09:34;;;;;;;2.90;1.13;;;4.50;99.90;;;;;;5008045;28;20033;-78
2022/04/11 00:12:02;;;;;;;5.33;1.07;;;4.50;99.90;;;;;;5006375;28;20475;-78
2022/04/11 00:14:28;;;;;;;4.87;1.33;;;4.50;99.90;;;;;;5021242;28;20032;-78
2022/04/11 00:16:56;;;;;;;3.90;1.20;;;4.50;99.90;;;;;;5025156;28;20040;-78
2022/04/11 00:19:22;;;;;;;4.07;1.10;;;4.40;99.90;;;;;;5010682;28;20054;-79
2022/04/11 00:21:48;;;;;;;2.73;1.47;;;4.40;99.90;;;;;;5023104;28;20365;-79
2022/04/11 00:24:15;;;;;;;6.03;1.63;;;4.40;99.90;;;;;;5016347;28;20033;-79
2022/04/11 00:26:42;;;;;;;4.50;1.33;;;4.40;99.90;;;;;;5043771;28;20032;-79
2022/04/11 00:29:08;;;;;;;4.03;1.10;;;4.40;99.90;;;;;;5040451;28;20048;-78
2022/04/11 00:31:35;;;;;;;4.47;1.60;;;4.40;99.90;;;;;;5059679;28;20030;-79
2022/04/11 00:34:02;;;;;;;2.60;1.20;;;4.40;99.90;;;;;;5024913;28;20017;-79
2022/04/11 00:36:28;;;;;;;4.27;1.50;;;4.30;99.90;;;;;;5044300;28;20048;-79
2022/04/11 00:38:57;;;;;;;4.90;1.17;;;4.40;99.90;;;;;;5003160;28;20033;-79
2022/04/11 00:41:24;;;;;;;3.60;1.43;;;4.30;99.90;;;;;;5039851;28;20364;-79
2022/04/11 00:43:50;;;;;;;3.90;1.20;;;4.40;99.90;;;;;;5021111;28;20051;-78
2022/04/11 00:46:16;;;;;;;3.60;1.50;;;4.40;99.90;;;;;;5023775;28;20044;-78
2022/04/11 00:48:43;;;;;;;4.00;1.20;;;4.30;99.90;;;;;;4997564;28;20040;-76
2022/04/11 00:51:29;;;;;;;4.87;1.50;;;4.30;99.90;;;;;;4998209;28;20507;-78
2022/04/11 00:53:59;;;;;;;5.77;1.43;;;4.30;99.90;;;;;;5007083;28;20032;-78
2022/04/11 00:56:28;;;;;;;4.13;1.40;;;4.30;99.90;;;;;;5015287;28;20028;-78
2022/04/11 00:58:58;;;;;;;3.70;1.30;;;4.40;99.90;;;;;;5004331;28;20043;-78
2022/04/11 01:01:24;;;;;;;5.47;1.70;;;4.30;99.90;;;;;;5032666;28;20032;-78
2022/04/11 01:03:51;;;;;;;4.83;1.70;;;4.30;99.90;;;;;;5007352;28;20516;-78
2022/04/11 01:06:18;;;;;;;5.93;1.50;;;4.30;99.90;;;;;;5008009;28;20465;-78
2022/04/11 01:08:45;;;;;;;3.73;1.30;;;4.30;99.90;;;;;;4997290;28;20388;-78
2022/04/11 01:11:12;;;;;;;3.37;1.30;;;4.30;99.90;;;;;;4995638;28;20021;-75
2022/04/11 01:13:42;;;;;;;3.17;1.30;;;4.30;99.90;;;;;;5008625;28;20048;-76
2022/04/11 01:16:11;;;;;;;3.13;1.07;;;4.30;99.90;;;;;;5023044;28;20032;-78
2022/04/11 01:18:39;;;;;;;4.00;1.47;;;4.30;99.90;;;;;;5025599;28;20479;-78
2022/04/11 01:21:09;;;;;;;4.00;1.60;;;4.30;99.90;;;;;;5012783;28;20028;-76
2022/04/11 01:23:35;;;;;;;7.17;1.80;;;4.30;99.90;;;;;;5038867;28;20372;-78
2022/04/11 01:26:02;;;;;;;2.87;1.40;;;4.30;99.90;;;;;;5009756;28;20025;-78
2022/04/11 01:28:30;;;;;;;5.33;1.43;;;4.30;99.90;;;;;;5028175;28;20041;-79
2022/04/11 01:30:57;;;;;;;4.80;1.30;;;4.30;99.90;;;;;;5012733;28;20048;-78
2022/04/11 01:33:28;;;;;;;4.93;1.80;;;4.30;99.90;;;;;;5009168;28;20044;-78
2022/04/11 01:35:57;;;;;;;3.27;1.30;;;4.30;99.90;;;;;;5025546;28;20051;-78
2022/04/11 01:38:24;;;;;;;4.23;1.70;;;4.30;99.90;;;;;;5027023;28;20027;-78
2022/04/11 01:40:55;;;;;;;3.50;1.47;;;4.30;99.90;;;;;;4998177;28;20379;-78
2022/04/11 01:43:23;;;;;;;4.37;1.23;;;4.30;99.90;;;;;;5007893;28;20028;-78
2022/04/11 01:45:51;;;;;;;5.90;1.77;;;4.30;99.90;;;;;;5005888;28;20048;-78
2022/04/11 01:48:23;;;;;;;6.07;2.20;;;4.30;99.90;;;;;;5025697;28;20024;-79
2022/04/11 01:50:50;;;;;;;4.87;2.07;;;4.20;99.90;;;;;;5029842;28;20033;-76
2022/04/11 01:53:19;;;;;;;5.47;2.67;;;4.20;99.90;;;;;;5010097;28;20032;-79
2022/04/11 01:55:46;;;;;;;5.37;1.83;;;4.20;99.90;;;;;;5027687;28;20028;-79
2022/04/11 01:58:14;;;;;;;5.30;2.10;;;4.20;99.90;;;;;;5030357;28;20025;-79
2022/04/11 02:00:41;;;;;;;7.83;2.53;;;4.20;99.90;;;;;;5029887;28;20024;-79
2022/04/11 02:03:09;;;;;;;4.83;1.87;;;4.20;99.90;;;;;;5009191;28;20114;-79
2022/04/11 02:05:36;;;;;;;4.73;1.70;;;4.20;99.90;;;;;;5046142;28;20040;-79
2022/04/11 02:08:05;;;;;;;5.17;2.40;;;4.20;99.90;;;;;;5045917;28;20055;-79
2022/04/11 02:10:32;;;;;;;4.40;2.00;;;4.20;99.90;;;;;;5046657;28;20036;-79
2022/04/11 02:12:59;;;;;;;4.70;2.20;;;4.20;99.90;;;;;;5022926;28;20029;-78
2022/04/11 02:15:26;;;;;;;4.73;2.20;;;4.20;99.90;;;;;;5009829;28;20029;-78
2022/04/11 02:17:52;;;;;;;3.30;1.87;;;4.20;99.90;;;;;;5011274;28;21233;-78
2022/04/11 02:20:19;;;;;;;3.40;1.97;;;4.20;99.90;;;;;;5008238;28;20028;-76
2022/04/11 02:22:50;;;;;;;4.23;2.30;;;4.20;99.90;;;;;;5022571;28;20044;-76
2022/04/11 02:25:20;;;;;;;4.13;2.20;;;4.20;99.90;;;;;;5012658;28;20035;-76
2022/04/11 02:27:48;;;;;;;5.80;2.63;;;4.10;99.90;;;;;;5057536;28;20067;-77
2022/04/11 02:30:35;;;;;;;4.97;2.20;;;4.10;99.90;;;;;;5028202;28;20583;-76
2022/04/11 02:33:02;;;;;;;6.67;2.10;;;4.10;99.90;;;;;;5037957;28;20380;-76
2022/04/11 02:35:28;;;;;;;4.83;2.47;;;4.00;99.90;;;;;;5010137;28;20029;-76
2022/04/11 02:37:58;;;;;;;4.37;2.03;;;4.10;99.90;;;;;;5014582;28;20036;-76
2022/04/11 02:40:27;;;;;;;5.63;2.30;;;4.00;99.90;;;;;;5009582;28;20029;-76
2022/04/11 02:43:16;;;;;;;4.77;2.23;;;4.00;99.90;;;;;;5009025;28;20415;-76
2022/04/11 02:45:51;;;;;;;6.40;2.67;;;4.00;99.90;;;;;;4991885;28;20041;-76
2022/04/11 02:48:34;;;;;;;5.90;1.90;;;4.00;99.90;;;;;;5016500;28;20119;-76
2022/04/11 02:51:17;;;;;;;9.17;3.97;;;3.90;99.90;;;;;;5042628;28;20029;-76
2022/04/11 02:53:50;;;;;;;6.65;2.97;;;3.90;99.90;;;;;;5007464;28;20047;-76
2022/04/11 02:56:17;;;;;;;6.40;3.47;;;3.90;99.90;;;;;;5024183;28;20033;-76
2022/04/11 02:58:43;;;;;;;5.57;2.83;;;3.80;99.90;;;;;;5053848;28;20033;-76
2022/04/11 03:01:15;;;;;;;6.73;2.93;;;3.90;99.90;;;;;;5001725;28;20025;-76
2022/04/11 03:03:52;;;;;;;5.35;3.72;;;3.90;99.90;;;;;;5031382;28;20356;-76
2022/04/11 03:06:19;;;;;;;5.10;2.80;;;3.80;99.90;;;;;;5041730;28;20033;-76
2022/04/11 03:08:48;;;;;;;4.40;2.23;;;3.80;99.90;;;;;;5001856;28;20026;-78
2022/04/11 03:11:22;;;;;;;5.80;2.70;;;3.80;99.90;;;;;;5038210;28;20028;-79
2022/04/11 03:13:50;;;;;;;4.93;2.60;;;3.80;99.90;;;;;;5023023;28;20048;-79
2022/04/11 03:16:29;;;;;;;5.80;2.90;;;3.70;99.90;;;;;;5041066;28;20055;-78
2022/04/11 03:18:58;;;;;;;3.90;2.27;;;3.80;99.90;;;;;;5061285;28;20404;-78
2022/04/11 03:21:24;;;;;;;4.10;2.83;;;3.70;99.90;;;;;;5039854;28;20397;-78
2022/04/11 03:24:00;;;;;;;6.23;2.97;;;3.70;99.90;;;;;;5006760;28;20812;-78
2022/04/11 03:26:27;;;;;;;5.13;2.73;;;3.70;99.90;;;;;;5026469;28;20036;-78
2022/04/11 03:28:53;;;;;;;6.53;2.67;;;3.70;99.90;;;;;;5002878;28;20053;-76
2022/04/11 03:31:20;;;;;;;3.90;2.33;;;3.70;99.90;;;;;;5009674;28;20024;-78
2022/04/11 03:33:47;;;;;;;6.70;2.33;;;3.60;99.90;;;;;;5010643;28;20028;-78
2022/04/11 03:36:13;;;;;;;4.40;2.50;;;3.60;99.90;;;;;;5021011;28;20369;-78
2022/04/11 03:38:40;;;;;;;4.30;2.33;;;3.60;99.90;;;;;;5024032;28;20041;-78
2022/04/11 03:41:10;;;;;;;4.67;2.30;;;3.60;99.90;;;;;;5002269;28;20387;-75
2022/04/11 03:43:37;;;;;;;3.93;2.47;;;3.50;99.90;;;;;;5020491;28;20048;-79
2022/04/11 03:46:03;;;;;;;4.53;2.40;;;3.50;99.90;;;;;;5007749;28;20371;-78
2022/04/11 03:48:30;;;;;;;3.00;2.10;;;3.50;99.90;;;;;;5024769;28;20037;-78
2022/04/11 03:50:56;;;;;;;7.40;2.73;;;3.50;99.90;;;;;;4999250;28;20049;-78
2022/04/11 03:53:23;;;;;;;6.57;3.07;;;3.40;99.90;;;;;;4989714;28;20475;-78
2022/04/11 03:55:55;;;;;;;4.07;2.35;;;3.40;99.90;;;;;;5006917;28;20044;-78
2022/04/11 03:58:22;;;;;;;3.60;2.47;;;3.30;99.90;;;;;;5002508;28;20035;-78
2022/04/11 04:00:51;;;;;;;5.30;2.50;;;3.40;99.90;;;;;;5007164;28;20751;-78
2022/04/11 04:03:26;;;;;;;5.93;3.00;;;3.30;99.90;;;;;;5006289;28;20033;-76
2022/04/11 04:05:58;;;;;;;5.10;2.50;;;3.40;99.90;;;;;;5010718;28;20028;-78
2022/04/11 04:08:29;;;;;;;5.97;2.47;;;3.30;99.90;;;;;;5024384;28;20048;-75
2022/04/11 04:11:02;;;;;;;7.35;2.45;;;3.30;99.90;;;;;;5007865;28;20043;-75
2022/04/11 04:13:30;;;;;;;5.33;2.67;;;3.30;99.90;;;;;;4999111;28;20036;-75
2022/04/11 04:15:58;;;;;;;4.17;2.57;;;3.30;99.90;;;;;;4981644;28;20037;-78
2022/04/11 04:18:26;;;;;;;6.53;3.47;;;3.30;99.90;;;;;;4993298;28;20030;-75
2022/04/11 04:20:56;;;;;;;4.90;2.60;;;3.30;99.90;;;;;;4996779;28;20039;-78
2022/04/11 04:23:35;;;;;;;4.70;2.00;;;3.30;99.90;;;;;;5056642;28;20013;-78
2022/04/11 04:26:13;;;;;;;3.17;1.90;;;3.40;99.90;;;;;;5033136;28;20033;-76
2022/04/11 04:28:44;;;;;;;4.83;2.10;;;3.30;99.90;;;;;;5026958;28;20577;-78
2022/04/11 04:31:10;;;;;;;5.33;2.63;;;3.40;99.90;;;;;;5040384;28;20036;-78
2022/04/11 04:33:41;;;;;;;5.07;2.50;;;3.40;99.90;;;;;;5038533;28;20032;-75
2022/04/11 04:36:10;;;;;;;4.60;2.28;;;3.50;99.90;;;;;;5029335;28;20040;-77
2022/04/11 04:38:38;;;;;;;4.30;2.03;;;3.50;99.90;;;;;;5003952;28;20036;-78
2022/04/11 04:41:09;;;;;;;3.60;2.30;;;3.60;99.90;;;;;;5029048;28;20057;-78
2022/04/11 04:43:42;;;;;;;28.40;14.03;;;3.60;99.90;;;;;;5041121;28;20047;-78
2022/04/11 04:46:15;;;;;;;31.27;14.37;;;3.60;99.90;;;;;;5042782;28;20037;-78
2022/04/11 04:48:51;;;;;;;15.57;8.83;;;3.70;99.90;;;;;;5034753;28;20043;-78
2022/04/11 04:51:26;;;;;;;12.37;6.40;;;3.60;99.90;;;;;;5062927;28;20040;-78
2022/04/11 04:54:01;;;;;;;8.57;5.40;;;3.70;99.90;;;;;;5039399;28;20028;-78
2022/04/11 04:56:31;;;;;;;14.68;8.93;;;3.70;99.90;;;;;;5028286;28;20055;-78
2022/04/11 04:59:04;;;;;;;10.97;5.43;;;3.70;99.90;;;;;;5027621;28;21388;-79
2022/04/11 05:01:31;;;;;;;8.13;3.87;;;3.70;99.90;;;;;;5040599;28;20025;-78
2022/04/11 05:03:58;;;;;;;8.10;3.57;;;3.70;99.90;;;;;;5021689;28;20041;-77
2022/04/11 05:06:30;;;;;;;10.82;5.25;;;3.70;99.90;;;;;;5042493;28;20032;-78
2022/04/11 05:08:57;;;;;;;6.40;3.33;;;3.80;99.90;;;;;;5042262;28;20017;-79
2022/04/11 05:11:24;;;;;;;7.33;3.43;;;3.80;99.90;;;;;;5044160;28;20032;-79
2022/04/11 05:13:54;;;;;;;6.20;3.33;;;3.80;99.90;;;;;;5008984;28;20035;-76
2022/04/11 05:16:30;;;;;;;4.43;3.00;;;3.80;99.90;;;;;;5033193;28;20017;-79
2022/04/11 05:19:09;;;;;;;4.40;2.63;;;3.90;99.90;;;;;;5027064;28;20024;-77
2022/04/11 05:21:36;;;;;;;4.67;3.57;;;3.90;99.90;;;;;;5014115;28;20029;-77
2022/04/11 05:24:06;;;;;;;7.30;3.73;;;4.00;99.90;;;;;;5026058;28;20021;-78
2022/04/11 05:26:33;;;;;;;6.03;3.17;;;4.00;99.90;;;;;;5010309;28;20037;-78
2022/04/11 05:29:06;;;;;;;6.93;3.20;;;4.20;99.90;;;;;;5014159;28;20371;-78
2022/04/11 05:31:54;;;;;;;6.43;3.07;;;4.20;99.90;;;;;;5006155;28;20505;-78
2022/04/11 05:34:25;;;;;;;5.83;3.20;;;4.20;99.90;;;;;;5020331;28;20408;-78
2022/04/11 05:36:54;;;;;;;6.77;3.70;;;4.30;99.90;;;;;;5027484;28;20475;-78
2022/04/11 05:39:27;;;;;;;5.60;3.60;;;4.40;99.90;;;;;;5011921;28;20352;-78
2022/04/11 05:41:57;;;;;;;;;;;4.50;99.90;;;;;;5028249;28;20040;-78
2022/04/11 05:44:24;;;;;;;5.63;3.07;;;4.50;99.90;;;;;;5011799;28;19909;-78
2022/04/11 05:46:55;;;;;;;6.33;3.37;;;4.60;99.90;;;;;;5014103;28;20040;-78
2022/04/11 05:49:38;;;;;;;5.03;2.80;;;4.60;99.90;;;;;;5011274;28;20025;-79
2022/04/11 05:52:07;;;;;;;11.30;4.37;;;4.70;99.90;;;;;;5007063;28;20025;-79
2022/04/11 05:54:40;;;;;;;6.93;3.40;;;4.80;99.90;;;;;;5006175;28;20337;-78
2022/04/11 05:57:09;;;;;;;5.30;3.40;;;4.90;99.90;;;;;;5005651;28;20491;-78
2022/04/11 05:59:42;;;;;;;5.97;3.70;;;5.00;99.90;;;;;;4991800;28;20029;-78
2022/04/11 06:02:12;;;;;;;7.90;3.70;;;5.00;99.90;;;;;;4990136;28;20044;-79
2022/04/11 06:04:44;;;;;;;7.67;3.77;;;5.10;99.90;;;;;;5021066;28;20040;-79
2022/04/11 06:07:16;;;;;;;5.87;3.33;;;5.10;99.90;;;;;;5006571;28;20025;-79
2022/04/11 06:09:45;;;;;;;5.73;3.23;;;5.20;99.90;;;;;;5039913;28;20048;-79
2022/04/11 06:12:12;;;;;;;6.40;3.37;;;5.20;99.90;;;;;;4999562;28;20040;-79
2022/04/11 06:14:42;;;;;;;4.63;3.17;;;5.20;99.90;;;;;;5005006;28;20030;-78
2022/04/11 06:17:09;;;;;;;7.47;3.97;;;5.30;99.90;;;;;;5018592;28;20021;-79
2022/04/11 06:19:36;;;;;;;8.33;4.00;;;5.30;99.90;;;;;;5018143;28;20033;-79
2022/04/11 06:22:02;;;;;;;7.47;4.07;;;5.30;99.90;;;;;;5036939;28;20025;-79
2022/04/11 06:24:36;;;;;;;5.87;4.17;;;5.30;99.90;;;;;;4998360;28;20029;-79
2022/04/11 06:27:03;;;;;;;5.70;4.27;;;5.40;99.90;;;;;;4964736;28;20812;-76
2022/04/11 06:29:29;;;;;;;8.50;4.77;;;5.40;99.90;;;;;;5038945;28;20049;-76
2022/04/11 06:31:55;;;;;;;5.83;4.40;;;5.50;99.90;;;;;;5005706;28;20021;-76
2022/04/11 06:34:29;;;;;;;8.03;4.87;;;5.50;99.90;;;;;;5041241;28;20041;-76
2022/04/11 06:36:55;;;;;;;7.00;5.40;;;5.60;99.90;;;;;;5059724;28;20036;-77
2022/04/11 06:39:23;;;;;;;6.43;4.27;;;5.60;99.90;;;;;;5027375;28;20487;-76
2022/04/11 06:41:54;;;;;;;6.57;4.30;;;5.80;99.90;;;;;;5009682;28;20394;-74
2022/04/11 06:44:21;;;;;;;6.63;5.30;;;5.90;99.90;;;;;;5056093;28;20372;-76
2022/04/11 06:47:08;;;;;;;7.30;4.90;;;6.10;99.90;;;;;;5034305;28;20034;-76
2022/04/11 06:49:37;;;;;;;7.57;5.57;;;6.40;99.90;;;;;;5037750;28;20025;-76
2022/04/11 06:52:05;;;;;;;8.90;5.50;;;6.70;99.90;;;;;;5033791;28;20029;-76
2022/04/11 06:54:32;;;;;;;11.53;6.73;;;6.90;99.90;;;;;;5054467;28;20055;-76
2022/04/11 06:56:59;;;;;;;10.57;6.30;;;7.10;99.90;;;;;;5055193;28;20012;-76
2022/04/11 06:59:25;;;;;;;9.48;5.75;;;7.30;99.90;;;;;;5037236;28;20025;-76
2022/04/11 07:01:52;;;;;;;9.10;5.95;;;7.50;99.90;;;;;;5037207;28;20017;-75
2022/04/11 07:04:19;;;;;;;10.05;5.50;;;7.70;99.90;;;;;;5053945;28;20464;-75
2022/04/11 07:06:46;;;;;;;7.25;4.28;;;7.80;99.90;;;;;;5045891;28;20036;-75
2022/04/11 07:09:13;;;;;;;10.13;6.38;;;8.00;99.90;;;;;;5037144;28;20032;-75
2022/04/11 07:11:39;;;;;;;8.10;5.53;;;8.20;99.90;;;;;;5020339;28;21413;-75
2022/04/11 07:14:06;;;;;;;9.82;6.78;;;8.30;99.90;;;;;;5033386;28;20372;-75
2022/04/11 07:16:33;;;;;;;8.98;5.57;;;8.50;99.90;;;;;;5037369;28;20028;-76
2022/04/11 07:18:59;;;;;;;8.90;4.97;;;8.60;99.90;;;;;;5055745;28;20033;-75
2022/04/11 07:21:26;;;;;;;8.57;5.75;;;8.70;99.90;;;;;;5056083;28;20021;-75
2022/04/11 07:23:52;;;;;;;9.38;4.88;;;8.90;99.90;;;;;;5053726;28;20016;-74
2022/04/11 07:26:18;;;;;;;8.88;5.03;;;9.00;99.90;;;;;;4998736;28;20040;-76
2022/04/11 07:28:47;;;;;;;10.13;5.85;;;9.10;99.90;;;;;;5051161;28;20045;-75
2022/04/11 07:31:14;;;;;;;9.68;6.28;;;9.20;99.90;;;;;;5016990;28;20036;-74
2022/04/11 07:33:41;;;;;;;10.50;5.30;;;9.30;99.90;;;;;;5052134;28;20020;-74
2022/04/11 07:36:07;;;;;;;9.70;5.82;;;9.40;99.90;;;;;;5034292;28;20032;-75
2022/04/11 07:38:34;;;;;;;10.35;6.07;;;9.40;99.90;;;;;;5055418;28;20031;-74
2022/04/11 07:41:00;;;;;;;13.32;8.02;;;9.60;99.90;;;;;;5053719;28;20348;-76
2022/04/11 07:43:27;;;;;;;10.98;6.03;;;9.70;99.60;;;;;;5019337;28;20032;-79
2022/04/11 07:45:53;;;;;;;9.95;5.47;;;9.80;99.40;;;;;;5034657;28;20035;-76
2022/04/11 07:48:20;;;;;;;10.70;5.13;;;9.80;99.10;;;;;;5056680;28;20405;-75
2022/04/11 07:50:47;;;;;;;6.65;4.20;;;9.90;99.00;;;;;;5055412;28;20017;-75
2022/04/11 07:53:14;;;;;;;9.43;5.70;;;10.00;99.00;;;;;;5034076;28;20021;-73
2022/04/11 07:55:40;;;;;;;9.77;5.30;;;10.20;98.70;;;;;;5037254;28;20033;-75
2022/04/11 07:58:06;;;;;;;7.22;4.65;;;10.30;98.10;;;;;;5054779;28;20460;-73
2022/04/11 08:00:33;;;;;;;7.70;4.82;;;10.40;98.00;;;;;;5022456;28;20037;-75
2022/04/11 08:03:00;;;;;;;10.18;5.40;;;10.50;97.90;;;;;;5028995;28;20045;-74
2022/04/11 08:05:26;;;;;;;9.05;4.50;;;10.60;96.80;;;;;;5035429;28;20908;-73
2022/04/11 08:07:53;;;;;;;5.80;4.10;;;10.60;96.50;;;;;;5037525;28;20052;-75
2022/04/11 08:10:21;;;;;;;7.57;4.10;;;10.70;96.70;;;;;;5038988;28;20361;-74
2022/04/11 08:12:56;;;;;;;8.13;3.83;;;10.90;96.70;;;;;;5059434;28;20028;-74
2022/04/11 08:15:24;;;;;;;6.93;3.70;;;11.10;96.50;;;;;;5060113;28;20031;-74
2022/04/11 08:17:50;;;;;;;9.32;4.95;;;11.20;96.00;;;;;;5042846;28;20013;-74
2022/04/11 08:20:17;;;;;;;7.45;4.20;;;11.30;95.70;;;;;;5044180;28;20028;-74
2022/04/11 08:22:43;;;;;;;6.60;3.60;;;11.40;95.90;;;;;;5040092;28;20383;-73
2022/04/11 08:25:10;;;;;;;6.35;4.20;;;11.40;95.70;;;;;;5063307;28;20056;-74
2022/04/11 08:27:37;;;;;;;13.98;5.07;;;11.50;95.30;;;;;;5042696;28;20029;-74
2022/04/11 08:30:04;;;;;;;8.32;4.32;;;11.60;95.50;;;;;;5063326;28;20028;-75
2022/04/11 08:32:40;;;;;;;9.77;4.97;;;11.60;95.20;;;;;;5042287;28;21090;-75
2022/04/11 08:35:08;;;;;;;6.65;4.57;;;11.70;95.40;;;;;;5060024;28;20025;-74
2022/04/11 08:37:40;;;;;;;7.25;3.85;;;11.80;95.50;;;;;;5061467;28;20036;-75
2022/04/11 08:40:07;;;;;;;7.32;4.18;;;11.90;95.50;;;;;;5043958;28;20033;-75
2022/04/11 08:42:33;;;;;;;7.95;4.43;;;12.10;95.50;;;;;;5022418;28;20035;-74
2022/04/11 08:45:01;;;;;;;9.73;5.35;;;12.20;95.60;;;;;;5059060;28;20491;-74
2022/04/11 08:47:27;;;;;;;11.35;5.70;;;12.30;95.30;;;;;;5051889;28;20030;-76
2022/04/11 08:49:55;;;;;;;9.77;5.00;;;12.40;95.20;;;;;;5055803;28;20021;-75
2022/04/11 08:52:21;;;;;;;9.32;5.28;;;12.50;95.00;;;;;;5047729;28;20040;-75
2022/04/11 08:54:48;;;;;;;6.53;4.38;;;12.60;94.50;;;;;;5038884;28;20017;-75
2022/04/11 08:57:14;;;;;;;7.80;4.30;;;12.60;94.40;;;;;;5064052;28;20017;-75
2022/04/11 08:59:41;;;;;;;5.45;4.25;;;12.70;94.60;;;;;;5062556;28;20039;-75
2022/04/11 09:02:10;;;;;;;6.85;3.60;;;12.90;94.80;;;;;;5041698;28;20037;-75
2022/04/11 09:04:50;;;;;;;6.28;4.20;;;13.10;94.20;;;;;;5053409;28;20029;-75
2022/04/11 09:07:17;;;;;;;9.73;3.60;;;13.10;93.40;;;;;;5062376;28;20043;-75
2022/04/11 09:09:44;;;;;;;8.07;3.80;;;13.10;93.40;;;;;;5032293;28;20771;-75
2022/04/11 09:12:18;;;;;;;6.05;2.80;;;13.20;93.10;;;;;;5039572;28;20032;-76
2022/04/11 09:14:55;;;;;;;5.80;2.78;;;13.30;93.00;;;;;;5042528;28;20029;-75
2022/04/11 09:17:23;;;;;;;5.75;2.72;;;13.50;92.70;;;;;;5013028;28;20033;-75
2022/04/11 09:20:10;;;;;;;4.95;2.50;;;13.60;91.40;;;;;;5060060;28;20455;-76
2022/04/11 09:22:36;;;;;;;5.70;2.72;;;13.80;91.20;;;;;;5054843;28;20017;-75
2022/04/11 09:25:20;;;;;;;4.60;2.30;;;13.90;91.00;;;;;;5059417;28;20020;-75
2022/04/11 09:27:48;;;;;;;7.80;3.70;;;14.10;90.60;;;;;;5037937;28;20045;-75
2022/04/11 09:30:25;;;;;;;7.20;3.88;;;14.20;89.90;;;;;;5016155;28;20017;-75
2022/04/11 09:32:57;;;;;;;6.78;2.80;;;14.20;90.10;;;;;;5036081;28;20020;-75
2022/04/11 09:35:37;;;;;;;;;;;14.30;90.30;;;;;;5025656;28;20021;-75
2022/04/11 09:38:06;;;;;;;4.50;2.13;;;14.40;88.50;;;;;;5053951;28;19904;-75
2022/04/11 09:40:38;;;;;;;6.15;2.50;;;14.50;87.50;;;;;;5059588;28;20392;-76
2022/04/11 09:43:05;;;;;;;5.45;2.28;;;14.50;85.70;;;;;;5046469;28;20027;-75
2022/04/11 09:45:32;;;;;;;4.05;2.35;;;14.50;85.00;;;;;;5058920;28;20471;-75
2022/04/11 09:48:03;;;;;;;6.93;2.20;;;14.50;83.60;;;;;;5058813;28;20032;-75
2022/04/11 09:50:31;;;;;;;6.88;2.60;;;14.50;83.90;;;;;;5026085;28;20031;-76
2022/04/11 09:53:12;;;;;;;4.93;2.17;;;14.70;83.60;;;;;;5038162;28;20032;-76
2022/04/11 09:55:41;;;;;;;6.25;2.78;;;14.80;83.80;;;;;;5058324;28;20051;-76
2022/04/11 09:58:08;;;;;;;10.57;2.30;;;14.90;83.10;;;;;;5056287;28;20029;-76
2022/04/11 10:00:39;;;;;;;8.60;2.45;;;15.00;82.70;;;;;;5057173;28;20146;-76
2022/04/11 10:03:07;;;;;;;4.33;2.23;;;15.10;81.90;;;;;;5036852;28;20020;-76
2022/04/11 10:05:38;;;;;;;7.95;1.50;;;15.20;81.40;;;;;;5056147;28;20020;-76
2022/04/11 10:08:06;;;;;;;2.63;0.95;;;15.30;79.30;;;;;;5056067;28;20040;-76
2022/04/11 10:10:35;;;;;;;3.47;1.00;;;15.40;77.70;;;;;;5035068;28;20028;-76
2022/04/11 10:13:02;;;;;;;4.38;1.05;;;15.60;76.40;;;;;;5035673;28;20017;-76
2022/04/11 10:15:30;;;;;;;4.10;1.33;;;15.60;74.30;;;;;;5022626;28;20032;-76
2022/04/11 10:17:56;;;;;;;6.20;1.35;;;15.80;73.60;;;;;;5039715;28;20024;-75
2022/04/11 10:20:28;;;;;;;3.20;1.08;;;15.80;71.70;;;;;;5058046;28;20020;-76
2022/04/11 10:23:08;;;;;;;3.40;1.37;;;15.90;72.30;;;;;;5032759;28;20035;-76
2022/04/11 10:25:45;;;;;;;4.80;1.08;;;16.10;72.10;;;;;;5056214;28;20283;-76
2022/04/11 10:28:28;;;;;;;2.92;1.02;;;16.20;70.00;;;;;;5055536;28;20048;-76
2022/04/11 10:31:10;;;;;;;6.25;3.10;;;16.40;68.50;;;;;;5037432;28;20020;-76
2022/04/11 10:33:56;;;;;;;3.33;1.25;;;16.40;66.60;;;;;;5054478;28;20024;-76
2022/04/11 10:36:28;;;;;;;4.07;1.00;;;16.60;68.40;;;;;;5055711;28;20020;-76
2022/04/11 10:39:13;;;;;;;7.18;1.60;;;16.80;69.00;;;;;;5038476;28;23104;-76
2022/04/11 10:41:54;;;;;;;6.70;1.80;;;17.20;68.60;;;;;;5055741;28;20034;-76
2022/04/11 10:44:56;;;;;;;4.38;1.67;;;17.50;66.20;;;;;;5052311;28;20480;-76
2022/04/11 10:47:30;;;;;;;7.47;1.90;;;17.70;64.70;;;;;;5040546;28;20513;-76
2022/04/11 10:50:01;;;;;;;4.68;1.40;;;17.80;62.00;;;;;;5058853;28;20468;-76
2022/04/11 10:52:31;;;;;;;7.50;2.25;;;17.90;63.90;;;;;;5053625;28;20013;-76
2022/04/11 10:55:05;;;;;;;4.15;0.98;;;18.10;61.60;;;;;;5038180;28;20020;-76
2022/04/11 10:57:54;;;;;;;4.47;1.65;;;18.30;62.60;;;;;;5055258;28;20029;-77
2022/04/11 11:00:27;;;;;;;4.88;2.30;;;18.60;62.50;;;;;;5055687;28;20032;-77
2022/04/11 11:02:56;;;;;;;5.93;1.95;;;18.80;58.80;;;;;;5049691;28;20033;-76
2022/04/11 11:05:39;;;;;;;7.45;3.08;;;19.00;59.90;;;;;;5057735;28;20028;-76
2022/04/11 11:08:11;;;;;;;5.28;2.00;;;19.30;55.70;;;;;;5034996;28;20036;-76
2022/04/11 11:10:46;;;;;;;5.88;1.70;;;19.10;55.50;;;;;;5054797;28;20028;-76
2022/04/11 11:13:41;;;;;;;3.38;1.73;;;19.20;55.90;;;;;;5032347;28;20013;-76
2022/04/11 11:16:12;;;;;;;4.15;1.52;;;19.30;56.10;;;;;;5020402;28;20043;-76
2022/04/11 11:18:51;;;;;;;4.63;1.98;;;19.60;55.40;;;;;;5037827;28;20416;-76
2022/04/11 11:21:20;;;;;;;3.10;1.45;;;19.90;54.30;;;;;;5056761;28;20036;-76
2022/04/11 11:24:04;;;;;;;5.93;2.13;;;20.20;54.00;;;;;;5054084;28;20027;-76
2022/04/11 11:26:41;;;;;;;3.72;1.73;;;20.50;52.70;;;;;;5037192;28;20028;-77
2022/04/11 11:29:20;;;;;;;4.35;1.88;;;20.80;51.60;;;;;;5054419;28;20519;-78
2022/04/11 11:31:49;;;;;;;4.88;2.70;;;20.90;51.60;;;;;;5056234;28;20013;-77
2022/04/11 11:34:20;;;;;;;3.92;1.67;;;20.90;51.10;;;;;;5054579;28;20013;-76
2022/04/11 11:36:47;;;;;;;4.38;2.50;;;20.80;52.80;;;;;;5053972;28;20020;-76
2022/04/11 11:39:18;;;;;;;5.82;4.07;;;21.00;53.30;;;;;;5037791;28;20029;-77
2022/04/11 11:42:14;;;;;;;6.93;4.53;;;21.40;52.20;;;;;;5037200;28;20024;-76
2022/04/11 11:44:48;;;;;;;3.97;1.73;;;21.50;49.30;;;;;;5033449;28;20048;-76
2022/04/11 11:47:15;;;;;;;4.35;1.70;;;21.20;48.90;;;;;;5054693;28;20388;-76
2022/04/11 11:49:47;;;;;;;4.25;1.92;;;21.00;50.20;;;;;;5036854;28;20028;-76
2022/04/11 11:52:17;;;;;;;4.40;1.50;;;21.20;50.90;;;;;;5052687;28;20037;-76
2022/04/11 11:54:46;;;;;;;5.28;2.10;;;21.60;51.60;;;;;;5034400;28;20036;-76
2022/04/11 11:57:22;;;;;;;3.78;1.88;;;21.80;49.20;;;;;;5022633;28;20036;-77
2022/04/11 12:00:02;;;;;;;3.45;1.83;;;21.90;47.60;;;;;;5037346;28;20028;-76
2022/04/11 12:05:30;;;;;;;4.35;2.30;;;22.00;47.90;;;;;;5037698;28;20060;-76
2022/04/11 12:08:03;;;;;;;3.90;1.83;;;21.90;47.90;;;;;;5016752;28;20028;-76
2022/04/11 12:10:30;;;;;;;5.10;2.20;;;21.80;47.50;;;;;;5051418;28;20380;-76
2022/04/11 12:12:57;;;;;;;6.22;1.88;;;21.70;46.00;;;;;;5041729;28;20375;-76
2022/04/11 12:15:23;;;;;;;5.70;2.13;;;21.80;46.70;;;;;;5040809;28;20827;-76
2022/04/11 12:18:03;;;;;;;3.03;2.08;;;21.80;46.50;;;;;;5056863;28;21209;-76
2022/04/11 12:20:31;;;;;;;4.10;1.75;;;22.00;45.70;;;;;;5054571;28;20020;-76
2022/04/11 12:23:11;;;;;;;6.45;2.53;;;22.10;45.70;;;;;;5048684;28;20029;-76
2022/04/11 12:25:44;;;;;;;5.28;1.98;;;22.30;45.90;;;;;;5054107;28;20035;-77
2022/04/11 12:28:12;;;;;;;6.07;1.70;;;22.80;45.60;;;;;;5031650;28;20506;-77
2022/04/11 12:30:46;;;;;;;4.50;2.70;;;23.10;45.20;;;;;;5034626;28;20534;-76
2022/04/11 12:33:37;;;;;;;5.00;2.70;;;23.20;43.30;;;;;;5044247;28;20043;-77
2022/04/11 12:36:27;;;;;;;4.05;1.88;;;23.20;43.20;;;;;;5042787;28;20020;-76
2022/04/11 12:39:14;;;;;;;5.13;2.30;;;23.40;43.20;;;;;;5053133;28;20526;-76
2022/04/11 12:41:40;;;;;;;8.52;5.32;;;23.50;41.60;;;;;;5056290;28;20032;-77
2022/04/11 12:44:20;;;;;;;3.15;2.00;;;23.60;42.40;;;;;;5047728;28;20025;-76
2022/04/11 12:47:03;;;;;;;5.03;2.08;;;23.90;41.90;;;;;;5055268;28;20441;-77
2022/04/11 12:49:50;;;;;;;4.30;2.28;;;24.10;41.60;;;;;;5014120;28;20024;-77
2022/04/11 12:52:19;;;;;;;4.55;2.17;;;24.20;40.50;;;;;;5050024;28;20020;-75
2022/04/11 12:55:07;;;;;;;3.50;2.08;;;24.20;40.50;;;;;;5052033;28;20614;-76
2022/04/11 12:57:35;;;;;;;3.35;1.50;;;24.20;40.60;;;;;;5042320;28;20048;-75
2022/04/11 13:00:13;;;;;;;3.85;2.45;;;24.30;40.90;;;;;;5061226;28;21030;-77
2022/04/11 13:02:40;;;;;;;4.88;2.33;;;24.40;40.10;;;;;;5056552;28;20052;-76
2022/04/11 13:05:12;;;;;;;4.72;2.13;;;24.30;40.10;;;;;;5059439;28;20016;-77
2022/04/11 13:07:40;;;;;;;7.60;2.60;;;24.20;40.50;;;;;;5045651;28;20020;-76
2022/04/11 13:10:07;;;;;;;4.80;2.10;;;24.10;41.20;;;;;;5062272;28;20281;-76
2022/04/11 13:12:34;;;;;;;4.50;2.40;;;24.30;40.90;;;;;;5040832;28;20032;-75
2022/04/11 13:15:00;;;;;;;6.75;2.85;;;24.50;39.90;;;;;;5059162;28;20029;-77